sensor_id;sensor_type;location;lat;lon;timestamp;temperature;humidity
41294;DHT22;27037;52.010;4.446;2023-03-01T00:01:47;1.90;99.90
41294;DHT22;27037;52.010;4.446;2023-03-01T00:04:12;1.90;99.90
41294;DHT22;27037;52.010;4.446;2023-03-01T00:06:38;1.90;99.90
41294;DHT22;27037;52.010;4.446;2023-03-01T00:09:04;1.90;99.90
41294;DHT22;27037;52.010;4.446;2023-03-01T00:11:31;1.90;99.90
41294;DHT22;27037;52.010;4.446;2023-03-01T00:13:58;1.90;99.90
41294;DHT22;27037;52.010;4.446;2023-03-01T00:16:37;1.90;99.90
41294;DHT22;27037;52.010;4.446;2023-03-01T00:19:08;1.90;99.90
41294;DHT22;27037;52.010;4.446;2023-03-01T00:21:34;1.80;99.90
41294;DHT22;27037;52.010;4.446;2023-03-01T00:24:01;1.80;99.90
41294;DHT22;27037;52.010;4.446;2023-03-01T00:26:27;1.80;99.90
41294;DHT22;27037;52.010;4.446;2023-03-01T00:28:54;1.70;99.90
41294;DHT22;27037;52.010;4.446;2023-03-01T00:31:24;1.70;99.90
41294;DHT22;27037;52.010;4.446;2023-03-01T00:33:58;1.60;99.90
41294;DHT22;27037;52.010;4.446;2023-03-01T00:36:27;1.60;99.90
41294;DHT22;27037;52.010;4.446;2023-03-01T00:38:53;1.60;99.90
41294;DHT22;27037;52.010;4.446;2023-03-01T00:41:20;1.60;99.90
41294;DHT22;27037;52.010;4.446;2023-03-01T00:43:46;1.60;99.90
41294;DHT22;27037;52.010;4.446;2023-03-01T00:46:14;1.60;99.90
41294;DHT22;27037;52.010;4.446;2023-03-01T00:48:41;1.60;99.90
41294;DHT22;27037;52.010;4.446;2023-03-01T00:51:12;1.60;99.90
41294;DHT22;27037;52.010;4.446;2023-03-01T00:53:39;1.60;99.90
41294;DHT22;27037;52.010;4.446;2023-03-01T00:56:06;1.50;99.90
41294;DHT22;27037;52.010;4.446;2023-03-01T00:58:33;1.50;99.90
41294;DHT22;27037;52.010;4.446;2023-03-01T01:00:59;1.50;99.90
41294;DHT22;27037;52.010;4.446;2023-03-01T01:03:25;1.50;99.90
41294;DHT22;27037;52.010;4.446;2023-03-01T01:05:52;1.50;99.90
41294;DHT22;27037;52.010;4.446;2023-03-01T01:08:19;1.50;99.90
41294;DHT22;27037;52.010;4.446;2023-03-01T01:10:45;1.50;99.90
41294;DHT22;27037;52.010;4.446;2023-03-01T01:13:11;1.50;99.90
41294;DHT22;27037;52.010;4.446;2023-03-01T01:15:37;1.40;99.90
41294;DHT22;27037;52.010;4.446;2023-03-01T01:18:02;1.40;99.90
41294;DHT22;27037;52.010;4.446;2023-03-01T01:20:28;1.40;99.90
41294;DHT22;27037;52.010;4.446;2023-03-01T01:22:54;1.40;99.90
41294;DHT22;27037;52.010;4.446;2023-03-01T01:25:19;1.40;99.90
41294;DHT22;27037;52.010;4.446;2023-03-01T01:27:45;1.40;99.90
41294;DHT22;27037;52.010;4.446;2023-03-01T01:30:11;1.30;99.90
41294;DHT22;27037;52.010;4.446;2023-03-01T01:32:37;1.30;99.90
41294;DHT22;27037;52.010;4.446;2023-03-01T01:35:03;1.30;99.90
41294;DHT22;27037;52.010;4.446;2023-03-01T01:37:28;1.30;99.90
41294;DHT22;27037;52.010;4.446;2023-03-01T01:39:57;1.30;99.90
41294;DHT22;27037;52.010;4.446;2023-03-01T01:42:24;1.30;99.90
41294;DHT22;27037;52.010;4.446;2023-03-01T01:48:07;1.20;99.90
41294;DHT22;27037;52.010;4.446;2023-03-01T01:50:39;1.20;99.90
41294;DHT22;27037;52.010;4.446;2023-03-01T01:53:09;1.10;99.90
41294;DHT22;27037;52.010;4.446;2023-03-01T01:55:37;1.10;99.90
41294;DHT22;27037;52.010;4.446;2023-03-01T01:58:06;1.10;99.90
41294;DHT22;27037;52.010;4.446;2023-03-01T02:00:33;1.00;99.90
41294;DHT22;27037;52.010;4.446;2023-03-01T02:03:11;1.00;99.90
41294;DHT22;27037;52.010;4.446;2023-03-01T02:05:54;1.00;99.90
41294;DHT22;27037;52.010;4.446;2023-03-01T02:08:23;1.00;99.90
41294;DHT22;27037;52.010;4.446;2023-03-01T02:10:51;0.90;99.90
41294;DHT22;27037;52.010;4.446;2023-03-01T02:13:17;0.90;99.90
41294;DHT22;27037;52.010;4.446;2023-03-01T02:15:43;0.90;99.90
41294;DHT22;27037;52.010;4.446;2023-03-01T02:18:14;0.90;99.90
41294;DHT22;27037;52.010;4.446;2023-03-01T02:21:06;0.80;99.90
41294;DHT22;27037;52.010;4.446;2023-03-01T02:23:34;0.80;99.90
41294;DHT22;27037;52.010;4.446;2023-03-01T02:28:29;0.80;99.90
41294;DHT22;27037;52.010;4.446;2023-03-01T02:30:55;0.80;99.90
41294;DHT22;27037;52.010;4.446;2023-03-01T02:33:39;0.70;99.90
41294;DHT22;27037;52.010;4.446;2023-03-01T02:36:09;0.70;99.90
41294;DHT22;27037;52.010;4.446;2023-03-01T02:38:36;0.70;99.90
41294;DHT22;27037;52.010;4.446;2023-03-01T02:41:03;0.70;99.90
41294;DHT22;27037;52.010;4.446;2023-03-01T02:43:31;0.70;99.90
41294;DHT22;27037;52.010;4.446;2023-03-01T02:46:04;0.70;99.90
41294;DHT22;27037;52.010;4.446;2023-03-01T02:48:46;0.60;99.90
41294;DHT22;27037;52.010;4.446;2023-03-01T02:56:37;0.70;99.90
41294;DHT22;27037;52.010;4.446;2023-03-01T02:59:03;0.70;99.90
41294;DHT22;27037;52.010;4.446;2023-03-01T03:01:29;0.60;99.90
41294;DHT22;27037;52.010;4.446;2023-03-01T03:04:02;0.60;99.90
41294;DHT22;27037;52.010;4.446;2023-03-01T03:06:28;0.60;99.90
41294;DHT22;27037;52.010;4.446;2023-03-01T03:08:54;0.60;99.90
41294;DHT22;27037;52.010;4.446;2023-03-01T03:11:20;0.60;99.90
41294;DHT22;27037;52.010;4.446;2023-03-01T03:13:46;0.60;99.90
41294;DHT22;27037;52.010;4.446;2023-03-01T03:16:14;0.60;99.90
41294;DHT22;27037;52.010;4.446;2023-03-01T03:18:39;0.60;99.90
41294;DHT22;27037;52.010;4.446;2023-03-01T03:21:08;0.60;99.90
41294;DHT22;27037;52.010;4.446;2023-03-01T03:23:38;0.50;99.90
41294;DHT22;27037;52.010;4.446;2023-03-01T03:26:04;0.60;99.90
41294;DHT22;27037;52.010;4.446;2023-03-01T03:28:31;0.60;99.90
41294;DHT22;27037;52.010;4.446;2023-03-01T03:30:57;0.50;99.90
41294;DHT22;27037;52.010;4.446;2023-03-01T03:33:24;0.50;99.90
41294;DHT22;27037;52.010;4.446;2023-03-01T03:35:50;0.50;99.90
41294;DHT22;27037;52.010;4.446;2023-03-01T03:38:18;0.50;99.90
41294;DHT22;27037;52.010;4.446;2023-03-01T03:40:48;0.40;99.90
41294;DHT22;27037;52.010;4.446;2023-03-01T03:43:22;0.40;99.90
41294;DHT22;27037;52.010;4.446;2023-03-01T03:45:49;0.40;99.90
41294;DHT22;27037;52.010;4.446;2023-03-01T03:48:16;0.40;99.90
41294;DHT22;27037;52.010;4.446;2023-03-01T03:50:48;0.40;99.90
41294;DHT22;27037;52.010;4.446;2023-03-01T03:53:14;0.30;99.90
41294;DHT22;27037;52.010;4.446;2023-03-01T03:55:40;0.30;99.90
41294;DHT22;27037;52.010;4.446;2023-03-01T03:58:08;0.30;99.90
41294;DHT22;27037;52.010;4.446;2023-03-01T04:00:42;0.30;99.90
41294;DHT22;27037;52.010;4.446;2023-03-01T04:03:10;0.20;99.90
41294;DHT22;27037;52.010;4.446;2023-03-01T04:05:37;0.20;99.90
41294;DHT22;27037;52.010;4.446;2023-03-01T04:08:03;0.20;99.90
41294;DHT22;27037;52.010;4.446;2023-03-01T04:10:35;0.20;99.90
41294;DHT22;27037;52.010;4.446;2023-03-01T04:13:02;0.10;99.90
41294;DHT22;27037;52.010;4.446;2023-03-01T04:15:28;0.10;99.90
41294;DHT22;27037;52.010;4.446;2023-03-01T04:17:54;0.10;99.90
41294;DHT22;27037;52.010;4.446;2023-03-01T04:20:24;0.10;99.90
41294;DHT22;27037;52.010;4.446;2023-03-01T04:23:08;0.00;99.90
41294;DHT22;27037;52.010;4.446;2023-03-01T04:25:55;0.00;99.90
41294;DHT22;27037;52.010;4.446;2023-03-01T04:30:57;0.00;99.90
41294;DHT22;27037;52.010;4.446;2023-03-01T04:33:24;-0.10;99.90
41294;DHT22;27037;52.010;4.446;2023-03-01T04:35:50;-0.10;99.90
41294;DHT22;27037;52.010;4.446;2023-03-01T04:38:17;-0.10;99.90
41294;DHT22;27037;52.010;4.446;2023-03-01T04:40:43;-0.10;99.90
41294;DHT22;27037;52.010;4.446;2023-03-01T04:43:11;-0.10;99.90
41294;DHT22;27037;52.010;4.446;2023-03-01T04:45:38;-0.10;99.90
41294;DHT22;27037;52.010;4.446;2023-03-01T04:48:04;-0.20;99.90
41294;DHT22;27037;52.010;4.446;2023-03-01T04:50:30;-0.20;99.90
41294;DHT22;27037;52.010;4.446;2023-03-01T04:52:55;-0.20;99.90
41294;DHT22;27037;52.010;4.446;2023-03-01T04:55:28;-0.20;99.90
41294;DHT22;27037;52.010;4.446;2023-03-01T04:57:54;-0.30;99.90
41294;DHT22;27037;52.010;4.446;2023-03-01T05:00:20;-0.20;99.90
41294;DHT22;27037;52.010;4.446;2023-03-01T05:02:50;-0.20;99.90
41294;DHT22;27037;52.010;4.446;2023-03-01T05:05:20;-0.30;99.90
41294;DHT22;27037;52.010;4.446;2023-03-01T05:07:46;-0.20;99.90
41294;DHT22;27037;52.010;4.446;2023-03-01T05:10:12;-0.20;99.90
41294;DHT22;27037;52.010;4.446;2023-03-01T05:12:38;-0.20;99.90
41294;DHT22;27037;52.010;4.446;2023-03-01T05:15:04;-0.20;99.90
41294;DHT22;27037;52.010;4.446;2023-03-01T05:17:33;-0.20;99.90
41294;DHT22;27037;52.010;4.446;2023-03-01T05:19:59;-0.20;99.90
41294;DHT22;27037;52.010;4.446;2023-03-01T05:22:26;-0.10;99.90
41294;DHT22;27037;52.010;4.446;2023-03-01T05:24:51;-0.10;99.90
41294;DHT22;27037;52.010;4.446;2023-03-01T05:27:19;-0.10;99.90
41294;DHT22;27037;52.010;4.446;2023-03-01T05:29:47;-0.10;99.90
41294;DHT22;27037;52.010;4.446;2023-03-01T05:32:13;-0.10;99.90
41294;DHT22;27037;52.010;4.446;2023-03-01T05:34:41;-0.20;99.90
41294;DHT22;27037;52.010;4.446;2023-03-01T05:37:07;-0.20;99.90
41294;DHT22;27037;52.010;4.446;2023-03-01T05:39:33;-0.20;99.90
41294;DHT22;27037;52.010;4.446;2023-03-01T05:42:00;-0.10;99.90
41294;DHT22;27037;52.010;4.446;2023-03-01T05:44:27;-0.20;99.90
41294;DHT22;27037;52.010;4.446;2023-03-01T05:46:53;-0.20;99.90
41294;DHT22;27037;52.010;4.446;2023-03-01T05:49:19;-0.20;99.90
41294;DHT22;27037;52.010;4.446;2023-03-01T05:51:50;-0.30;99.90
41294;DHT22;27037;52.010;4.446;2023-03-01T05:54:16;-0.20;99.90
41294;DHT22;27037;52.010;4.446;2023-03-01T05:56:43;-0.20;99.90
41294;DHT22;27037;52.010;4.446;2023-03-01T05:59:09;-0.30;99.90
41294;DHT22;27037;52.010;4.446;2023-03-01T06:01:35;-0.30;99.90
41294;DHT22;27037;52.010;4.446;2023-03-01T06:04:01;-0.30;99.90
41294;DHT22;27037;52.010;4.446;2023-03-01T06:06:27;-0.30;99.90
41294;DHT22;27037;52.010;4.446;2023-03-01T06:08:53;-0.40;99.90
41294;DHT22;27037;52.010;4.446;2023-03-01T06:11:20;-0.40;99.90
41294;DHT22;27037;52.010;4.446;2023-03-01T06:13:46;-0.40;99.90
41294;DHT22;27037;52.010;4.446;2023-03-01T06:16:12;-0.40;99.90
41294;DHT22;27037;52.010;4.446;2023-03-01T06:18:38;-0.40;99.90
41294;DHT22;27037;52.010;4.446;2023-03-01T06:21:05;-0.40;99.90
41294;DHT22;27037;52.010;4.446;2023-03-01T06:23:32;-0.50;99.90
41294;DHT22;27037;52.010;4.446;2023-03-01T06:25:58;-0.50;99.90
41294;DHT22;27037;52.010;4.446;2023-03-01T06:28:24;-0.50;99.90
41294;DHT22;27037;52.010;4.446;2023-03-01T06:30:50;-0.50;99.90
41294;DHT22;27037;52.010;4.446;2023-03-01T06:33:17;-0.50;99.90
41294;DHT22;27037;52.010;4.446;2023-03-01T06:35:46;-0.50;99.90
41294;DHT22;27037;52.010;4.446;2023-03-01T06:38:12;-0.50;99.90
41294;DHT22;27037;52.010;4.446;2023-03-01T06:40:40;-0.50;99.90
41294;DHT22;27037;52.010;4.446;2023-03-01T06:43:06;-0.50;99.90
41294;DHT22;27037;52.010;4.446;2023-03-01T06:45:33;-0.50;99.90
41294;DHT22;27037;52.010;4.446;2023-03-01T06:48:06;-0.50;99.90
41294;DHT22;27037;52.010;4.446;2023-03-01T06:50:32;-0.50;99.90
41294;DHT22;27037;52.010;4.446;2023-03-01T06:52:58;-0.50;99.90
41294;DHT22;27037;52.010;4.446;2023-03-01T06:55:24;-0.50;99.90
41294;DHT22;27037;52.010;4.446;2023-03-01T06:58:08;-0.60;99.90
41294;DHT22;27037;52.010;4.446;2023-03-01T07:00:34;-0.50;99.90
41294;DHT22;27037;52.010;4.446;2023-03-01T07:03:00;-0.50;99.90
41294;DHT22;27037;52.010;4.446;2023-03-01T07:05:28;-0.50;99.90
41294;DHT22;27037;52.010;4.446;2023-03-01T07:07:54;-0.60;99.90
41294;DHT22;27037;52.010;4.446;2023-03-01T07:10:21;-0.50;99.90
41294;DHT22;27037;52.010;4.446;2023-03-01T07:12:46;-0.50;99.90
41294;DHT22;27037;52.010;4.446;2023-03-01T07:15:12;-0.50;99.90
41294;DHT22;27037;52.010;4.446;2023-03-01T07:17:37;-0.50;99.90
41294;DHT22;27037;52.010;4.446;2023-03-01T07:20:03;-0.50;99.90
41294;DHT22;27037;52.010;4.446;2023-03-01T07:22:29;-0.40;99.90
41294;DHT22;27037;52.010;4.446;2023-03-01T07:24:55;-0.40;99.90
41294;DHT22;27037;52.010;4.446;2023-03-01T07:27:21;-0.40;99.90
41294;DHT22;27037;52.010;4.446;2023-03-01T07:29:47;-0.40;99.90
41294;DHT22;27037;52.010;4.446;2023-03-01T07:32:13;-0.40;99.90
41294;DHT22;27037;52.010;4.446;2023-03-01T07:34:38;-0.40;99.90
41294;DHT22;27037;52.010;4.446;2023-03-01T07:37:04;-0.40;99.90
41294;DHT22;27037;52.010;4.446;2023-03-01T07:39:29;-0.30;99.90
41294;DHT22;27037;52.010;4.446;2023-03-01T07:41:58;-0.30;99.90
41294;DHT22;27037;52.010;4.446;2023-03-01T07:44:23;-0.20;99.90
41294;DHT22;27037;52.010;4.446;2023-03-01T07:46:49;-0.20;99.90
41294;DHT22;27037;52.010;4.446;2023-03-01T07:49:15;-0.10;99.90
41294;DHT22;27037;52.010;4.446;2023-03-01T07:51:40;-0.10;99.90
41294;DHT22;27037;52.010;4.446;2023-03-01T07:54:07;-0.10;99.90
41294;DHT22;27037;52.010;4.446;2023-03-01T07:56:32;0.00;99.90
41294;DHT22;27037;52.010;4.446;2023-03-01T07:58:59;0.00;99.90
41294;DHT22;27037;52.010;4.446;2023-03-01T08:01:24;0.10;99.90
41294;DHT22;27037;52.010;4.446;2023-03-01T08:03:50;0.10;99.90
41294;DHT22;27037;52.010;4.446;2023-03-01T08:06:16;0.20;99.90
41294;DHT22;27037;52.010;4.446;2023-03-01T08:08:43;0.20;99.90
41294;DHT22;27037;52.010;4.446;2023-03-01T08:11:11;0.30;99.90
41294;DHT22;27037;52.010;4.446;2023-03-01T08:13:37;0.30;99.90
41294;DHT22;27037;52.010;4.446;2023-03-01T08:16:05;0.40;99.90
41294;DHT22;27037;52.010;4.446;2023-03-01T08:18:32;0.40;99.90
41294;DHT22;27037;52.010;4.446;2023-03-01T08:21:15;0.50;99.90
41294;DHT22;27037;52.010;4.446;2023-03-01T08:23:41;0.60;99.90
41294;DHT22;27037;52.010;4.446;2023-03-01T08:26:15;0.70;99.90
41294;DHT22;27037;52.010;4.446;2023-03-01T08:28:41;0.70;99.90
41294;DHT22;27037;52.010;4.446;2023-03-01T08:31:34;0.80;99.90
41294;DHT22;27037;52.010;4.446;2023-03-01T08:34:10;0.90;99.90
41294;DHT22;27037;52.010;4.446;2023-03-01T08:36:39;1.00;99.90
41294;DHT22;27037;52.010;4.446;2023-03-01T08:39:06;1.10;99.90
41294;DHT22;27037;52.010;4.446;2023-03-01T08:41:31;1.20;99.90
41294;DHT22;27037;52.010;4.446;2023-03-01T08:43:57;1.30;99.90
41294;DHT22;27037;52.010;4.446;2023-03-01T08:46:36;1.40;99.90
41294;DHT22;27037;52.010;4.446;2023-03-01T08:49:07;1.50;99.90
41294;DHT22;27037;52.010;4.446;2023-03-01T08:51:34;1.70;99.90
41294;DHT22;27037;52.010;4.446;2023-03-01T08:54:06;1.90;99.90
41294;DHT22;27037;52.010;4.446;2023-03-01T08:56:33;2.00;99.90
41294;DHT22;27037;52.010;4.446;2023-03-01T08:58:58;2.10;99.90
41294;DHT22;27037;52.010;4.446;2023-03-01T09:01:24;2.30;99.90
41294;DHT22;27037;52.010;4.446;2023-03-01T09:03:50;2.40;99.90
41294;DHT22;27037;52.010;4.446;2023-03-01T09:06:16;2.60;99.90
41294;DHT22;27037;52.010;4.446;2023-03-01T09:08:44;2.70;99.90
41294;DHT22;27037;52.010;4.446;2023-03-01T09:11:13;2.90;99.90
41294;DHT22;27037;52.010;4.446;2023-03-01T09:13:40;3.00;99.90
41294;DHT22;27037;52.010;4.446;2023-03-01T09:16:07;3.10;99.90
41294;DHT22;27037;52.010;4.446;2023-03-01T09:18:34;3.30;99.90
41294;DHT22;27037;52.010;4.446;2023-03-01T09:21:05;3.40;99.90
41294;DHT22;27037;52.010;4.446;2023-03-01T09:23:34;3.50;99.90
41294;DHT22;27037;52.010;4.446;2023-03-01T09:26:00;3.60;99.90
41294;DHT22;27037;52.010;4.446;2023-03-01T09:28:26;3.80;99.90
41294;DHT22;27037;52.010;4.446;2023-03-01T09:30:51;4.00;99.90
41294;DHT22;27037;52.010;4.446;2023-03-01T09:33:17;4.10;99.90
41294;DHT22;27037;52.010;4.446;2023-03-01T09:35:42;4.20;99.90
41294;DHT22;27037;52.010;4.446;2023-03-01T09:38:13;4.30;99.90
41294;DHT22;27037;52.010;4.446;2023-03-01T09:40:43;4.40;99.90
41294;DHT22;27037;52.010;4.446;2023-03-01T09:46:04;4.70;99.90
41294;DHT22;27037;52.010;4.446;2023-03-01T09:48:59;4.80;99.90
41294;DHT22;27037;52.010;4.446;2023-03-01T09:51:30;4.90;99.90
41294;DHT22;27037;52.010;4.446;2023-03-01T09:53:57;5.00;99.90
41294;DHT22;27037;52.010;4.446;2023-03-01T09:56:37;5.10;99.90
41294;DHT22;27037;52.010;4.446;2023-03-01T10:09:42;5.60;99.90
41294;DHT22;27037;52.010;4.446;2023-03-01T10:12:12;5.80;99.90
41294;DHT22;27037;52.010;4.446;2023-03-01T10:20:16;6.10;99.90
41294;DHT22;27037;52.010;4.446;2023-03-01T10:22:43;6.20;99.90
41294;DHT22;27037;52.010;4.446;2023-03-01T10:25:14;6.20;99.90
41294;DHT22;27037;52.010;4.446;2023-03-01T10:30:39;6.40;99.90
41294;DHT22;27037;52.010;4.446;2023-03-01T10:33:29;6.40;99.90
41294;DHT22;27037;52.010;4.446;2023-03-01T10:35:57;6.40;99.90
41294;DHT22;27037;52.010;4.446;2023-03-01T10:38:22;6.40;99.90
41294;DHT22;27037;52.010;4.446;2023-03-01T10:40:58;6.50;99.90
41294;DHT22;27037;52.010;4.446;2023-03-01T10:43:26;6.60;99.90
41294;DHT22;27037;52.010;4.446;2023-03-01T10:45:52;6.70;99.90
41294;DHT22;27037;52.010;4.446;2023-03-01T10:48:23;6.70;99.90
41294;DHT22;27037;52.010;4.446;2023-03-01T10:53:24;6.80;99.90
41294;DHT22;27037;52.010;4.446;2023-03-01T10:56:04;7.00;99.90
41294;DHT22;27037;52.010;4.446;2023-03-01T10:58:31;7.00;99.90
41294;DHT22;27037;52.010;4.446;2023-03-01T11:03:42;7.10;99.90
41294;DHT22;27037;52.010;4.446;2023-03-01T11:08:42;7.20;99.90
41294;DHT22;27037;52.010;4.446;2023-03-01T11:11:32;7.30;99.90
41294;DHT22;27037;52.010;4.446;2023-03-01T11:13:59;7.40;99.90
41294;DHT22;27037;52.010;4.446;2023-03-01T11:19:04;7.40;99.90
41294;DHT22;27037;52.010;4.446;2023-03-01T11:21:33;7.40;99.90
41294;DHT22;27037;52.010;4.446;2023-03-01T11:24:01;7.30;99.90
41294;DHT22;27037;52.010;4.446;2023-03-01T11:26:28;7.40;99.90
41294;DHT22;27037;52.010;4.446;2023-03-01T11:28:58;7.40;99.90
41294;DHT22;27037;52.010;4.446;2023-03-01T11:31:28;7.50;99.90
41294;DHT22;27037;52.010;4.446;2023-03-01T11:34:19;7.50;99.90
41294;DHT22;27037;52.010;4.446;2023-03-01T11:36:53;7.50;99.90
41294;DHT22;27037;52.010;4.446;2023-03-01T11:39:46;7.50;99.90
41294;DHT22;27037;52.010;4.446;2023-03-01T11:45:02;7.50;99.90
41294;DHT22;27037;52.010;4.446;2023-03-01T11:52:58;7.70;99.90
41294;DHT22;27037;52.010;4.446;2023-03-01T11:56:03;7.70;99.90
41294;DHT22;27037;52.010;4.446;2023-03-01T11:58:59;7.70;99.90
41294;DHT22;27037;52.010;4.446;2023-03-01T12:01:30;7.70;99.90
41294;DHT22;27037;52.010;4.446;2023-03-01T12:09:17;7.60;99.90
41294;DHT22;27037;52.010;4.446;2023-03-01T12:20:30;7.90;99.90
41294;DHT22;27037;52.010;4.446;2023-03-01T12:23:31;7.80;99.90
41294;DHT22;27037;52.010;4.446;2023-03-01T12:26:13;7.90;99.90
41294;DHT22;27037;52.010;4.446;2023-03-01T12:31:53;7.80;99.90
41294;DHT22;27037;52.010;4.446;2023-03-01T12:37:22;8.00;99.90
41294;DHT22;27037;52.010;4.446;2023-03-01T12:40:00;8.00;99.90
41294;DHT22;27037;52.010;4.446;2023-03-01T12:51:07;8.20;99.90
41294;DHT22;27037;52.010;4.446;2023-03-01T12:53:40;8.30;99.90
41294;DHT22;27037;52.010;4.446;2023-03-01T12:56:11;8.30;99.90
41294;DHT22;27037;52.010;4.446;2023-03-01T12:58:57;8.40;99.90
41294;DHT22;27037;52.010;4.446;2023-03-01T13:09:26;8.60;99.90
41294;DHT22;27037;52.010;4.446;2023-03-01T13:11:53;8.70;99.90
41294;DHT22;27037;52.010;4.446;2023-03-01T13:16:49;8.70;99.90
41294;DHT22;27037;52.010;4.446;2023-03-01T13:19:17;8.70;99.90
41294;DHT22;27037;52.010;4.446;2023-03-01T13:21:44;8.70;99.90
41294;DHT22;27037;52.010;4.446;2023-03-01T13:24:33;8.70;99.90
41294;DHT22;27037;52.010;4.446;2023-03-01T13:29:52;8.80;99.90
41294;DHT22;27037;52.010;4.446;2023-03-01T13:32:27;8.70;99.90
41294;DHT22;27037;52.010;4.446;2023-03-01T13:35:01;8.70;99.90
41294;DHT22;27037;52.010;4.446;2023-03-01T13:37:36;8.70;99.80
41294;DHT22;27037;52.010;4.446;2023-03-01T13:42:49;8.70;99.60
41294;DHT22;27037;52.010;4.446;2023-03-01T13:45:40;8.70;99.80
41294;DHT22;27037;52.010;4.446;2023-03-01T13:48:22;8.60;99.20
41294;DHT22;27037;52.010;4.446;2023-03-01T13:50:58;8.60;99.90
41294;DHT22;27037;52.010;4.446;2023-03-01T13:53:26;8.70;99.90
41294;DHT22;27037;52.010;4.446;2023-03-01T13:56:00;8.70;99.90
41294;DHT22;27037;52.010;4.446;2023-03-01T13:58:31;8.80;99.90
41294;DHT22;27037;52.010;4.446;2023-03-01T14:01:01;8.90;99.40
41294;DHT22;27037;52.010;4.446;2023-03-01T14:03:28;8.90;99.40
41294;DHT22;27037;52.010;4.446;2023-03-01T14:08:29;9.00;99.20
41294;DHT22;27037;52.010;4.446;2023-03-01T14:19:26;9.10;98.00
41294;DHT22;27037;52.010;4.446;2023-03-01T14:24:56;9.10;97.70
41294;DHT22;27037;52.010;4.446;2023-03-01T14:27:30;9.10;97.70
41294;DHT22;27037;52.010;4.446;2023-03-01T14:29:59;9.10;97.70
41294;DHT22;27037;52.010;4.446;2023-03-01T14:32:28;9.10;98.10
41294;DHT22;27037;52.010;4.446;2023-03-01T14:34:55;9.10;97.50
41294;DHT22;27037;52.010;4.446;2023-03-01T14:37:25;9.10;97.60
41294;DHT22;27037;52.010;4.446;2023-03-01T14:39:52;9.00;97.70
41294;DHT22;27037;52.010;4.446;2023-03-01T14:42:21;9.10;97.80
41294;DHT22;27037;52.010;4.446;2023-03-01T14:44:51;9.10;98.20
41294;DHT22;27037;52.010;4.446;2023-03-01T14:47:27;9.10;97.90
41294;DHT22;27037;52.010;4.446;2023-03-01T14:49:58;9.10;97.00
41294;DHT22;27037;52.010;4.446;2023-03-01T14:52:48;9.10;97.00
41294;DHT22;27037;52.010;4.446;2023-03-01T14:55:45;9.10;96.50
41294;DHT22;27037;52.010;4.446;2023-03-01T14:58:13;9.10;96.90
41294;DHT22;27037;52.010;4.446;2023-03-01T15:00:55;9.10;96.80
41294;DHT22;27037;52.010;4.446;2023-03-01T15:05:59;9.10;97.90
41294;DHT22;27037;52.010;4.446;2023-03-01T15:08:26;9.10;97.40
41294;DHT22;27037;52.010;4.446;2023-03-01T15:13:28;8.90;97.80
41294;DHT22;27037;52.010;4.446;2023-03-01T15:18:32;8.90;97.60
41294;DHT22;27037;52.010;4.446;2023-03-01T15:23:49;8.80;98.10
41294;DHT22;27037;52.010;4.446;2023-03-01T15:26:36;8.80;98.20
41294;DHT22;27037;52.010;4.446;2023-03-01T15:29:03;8.70;98.20
41294;DHT22;27037;52.010;4.446;2023-03-01T15:31:34;8.70;98.40
41294;DHT22;27037;52.010;4.446;2023-03-01T15:36:49;8.60;98.60
41294;DHT22;27037;52.010;4.446;2023-03-01T15:42:13;8.60;97.70
41294;DHT22;27037;52.010;4.446;2023-03-01T15:45:19;8.50;97.90
41294;DHT22;27037;52.010;4.446;2023-03-01T15:47:57;8.40;98.30
41294;DHT22;27037;52.010;4.446;2023-03-01T15:52:55;8.20;98.40
41294;DHT22;27037;52.010;4.446;2023-03-01T15:57:49;8.10;98.60
41294;DHT22;27037;52.010;4.446;2023-03-01T16:00:16;8.00;98.90
41294;DHT22;27037;52.010;4.446;2023-03-01T16:02:44;7.90;99.10
41294;DHT22;27037;52.010;4.446;2023-03-01T16:05:22;7.80;99.30
41294;DHT22;27037;52.010;4.446;2023-03-01T16:07:49;7.80;99.40
41294;DHT22;27037;52.010;4.446;2023-03-01T16:10:15;7.70;99.80
41294;DHT22;27037;52.010;4.446;2023-03-01T16:12:40;7.60;99.80
41294;DHT22;27037;52.010;4.446;2023-03-01T16:15:19;7.60;99.90
41294;DHT22;27037;52.010;4.446;2023-03-01T16:17:45;7.50;99.90
41294;DHT22;27037;52.010;4.446;2023-03-01T16:20:11;7.50;99.90
41294;DHT22;27037;52.010;4.446;2023-03-01T16:22:37;7.40;99.90
41294;DHT22;27037;52.010;4.446;2023-03-01T16:25:03;7.30;99.90
41294;DHT22;27037;52.010;4.446;2023-03-01T16:27:29;7.30;99.90
41294;DHT22;27037;52.010;4.446;2023-03-01T16:29:54;7.20;99.90
41294;DHT22;27037;52.010;4.446;2023-03-01T16:32:20;7.20;99.90
41294;DHT22;27037;52.010;4.446;2023-03-01T16:34:46;7.20;99.90
41294;DHT22;27037;52.010;4.446;2023-03-01T16:37:15;7.10;99.90
41294;DHT22;27037;52.010;4.446;2023-03-01T16:39:40;7.00;99.90
41294;DHT22;27037;52.010;4.446;2023-03-01T16:42:06;7.00;99.90
41294;DHT22;27037;52.010;4.446;2023-03-01T16:44:32;7.00;99.90
41294;DHT22;27037;52.010;4.446;2023-03-01T16:46:57;6.90;99.90
41294;DHT22;27037;52.010;4.446;2023-03-01T16:49:23;6.80;99.90
41294;DHT22;27037;52.010;4.446;2023-03-01T16:51:48;6.80;99.90
41294;DHT22;27037;52.010;4.446;2023-03-01T16:54:14;6.70;99.90
41294;DHT22;27037;52.010;4.446;2023-03-01T16:56:40;6.70;99.90
41294;DHT22;27037;52.010;4.446;2023-03-01T16:59:06;6.70;99.90
41294;DHT22;27037;52.010;4.446;2023-03-01T17:01:32;6.60;99.90
41294;DHT22;27037;52.010;4.446;2023-03-01T17:04:06;6.50;99.90
41294;DHT22;27037;52.010;4.446;2023-03-01T17:06:31;6.50;99.90
41294;DHT22;27037;52.010;4.446;2023-03-01T17:08:58;6.40;99.90
41294;DHT22;27037;52.010;4.446;2023-03-01T17:11:25;6.40;99.90
41294;DHT22;27037;52.010;4.446;2023-03-01T17:13:50;6.30;99.90
41294;DHT22;27037;52.010;4.446;2023-03-01T17:16:18;6.30;99.90
41294;DHT22;27037;52.010;4.446;2023-03-01T17:18:45;6.20;99.90
41294;DHT22;27037;52.010;4.446;2023-03-01T17:21:11;6.10;99.90
41294;DHT22;27037;52.010;4.446;2023-03-01T17:23:40;6.10;99.90
41294;DHT22;27037;52.010;4.446;2023-03-01T17:26:07;6.10;99.90
41294;DHT22;27037;52.010;4.446;2023-03-01T17:28:35;6.00;99.90
41294;DHT22;27037;52.010;4.446;2023-03-01T17:31:02;6.00;99.90
41294;DHT22;27037;52.010;4.446;2023-03-01T17:33:29;5.90;99.90
41294;DHT22;27037;52.010;4.446;2023-03-01T17:35:58;5.90;99.90
41294;DHT22;27037;52.010;4.446;2023-03-01T17:38:24;5.80;99.90
41294;DHT22;27037;52.010;4.446;2023-03-01T17:40:50;5.80;99.90
41294;DHT22;27037;52.010;4.446;2023-03-01T17:43:17;5.80;99.90
41294;DHT22;27037;52.010;4.446;2023-03-01T17:45:43;5.70;99.90
41294;DHT22;27037;52.010;4.446;2023-03-01T17:48:13;5.70;99.90
41294;DHT22;27037;52.010;4.446;2023-03-01T17:50:39;5.60;99.90
41294;DHT22;27037;52.010;4.446;2023-03-01T17:53:08;5.60;99.90
41294;DHT22;27037;52.010;4.446;2023-03-01T17:55:39;5.60;99.90
41294;DHT22;27037;52.010;4.446;2023-03-01T17:58:07;5.50;99.90
41294;DHT22;27037;52.010;4.446;2023-03-01T18:00:34;5.50;99.90
41294;DHT22;27037;52.010;4.446;2023-03-01T18:03:00;5.40;99.90
41294;DHT22;27037;52.010;4.446;2023-03-01T18:05:26;5.40;99.90
41294;DHT22;27037;52.010;4.446;2023-03-01T18:07:53;5.40;99.90
41294;DHT22;27037;52.010;4.446;2023-03-01T18:10:19;5.30;99.90